LAR weather

Laramie Regional Airport
Laramie, Wyoming, United States

Public forecast

Using degrees Fahrenheit for public forecast. Weather courtesy of forecast.io.

Current aviation weather report (METAR) for Laramie Regional Airport

Retrieved 2019/11/15 20:53 UTC (1 hour ago):

KLAR 152053Z AUTO 28015G24KT 10SM CLR 13/M09 A3014 RMK AO2 SLP138 T01331089 56015

Aviation forecast (TAF) for Laramie Regional Airport

Retrieved 2019/11/15 18:33 UTC (3 hours ago):

TAF KLAR 151730Z 1518/1618 23008KT P6SM BKN120 FM160100 25010KT P6SM SCT150 FM161500 30012G22KT P6SM OVC060